sensor_id;sensor_type;location;lat;lon;timestamp;temperature;humidity
16958;DHT22;8595;52.542;11.974;2023-06-14T00:00:16;17.80;99.90
16958;DHT22;8595;52.542;11.974;2023-06-14T00:02:43;17.90;99.90
16958;DHT22;8595;52.542;11.974;2023-06-14T00:05:11;17.90;99.90
16958;DHT22;8595;52.542;11.974;2023-06-14T00:07:40;17.80;99.90
16958;DHT22;8595;52.542;11.974;2023-06-14T00:10:10;17.80;99.90
16958;DHT22;8595;52.542;11.974;2023-06-14T00:12:38;17.80;99.90
16958;DHT22;8595;52.542;11.974;2023-06-14T00:15:06;17.70;99.90
16958;DHT22;8595;52.542;11.974;2023-06-14T00:17:35;17.80;99.90
16958;DHT22;8595;52.542;11.974;2023-06-14T00:20:03;17.60;99.90
16958;DHT22;8595;52.542;11.974;2023-06-14T00:22:34;17.50;99.90
16958;DHT22;8595;52.542;11.974;2023-06-14T00:25:02;17.40;99.90
16958;DHT22;8595;52.542;11.974;2023-06-14T00:27:29;17.40;99.90
16958;DHT22;8595;52.542;11.974;2023-06-14T00:29:55;17.40;99.90
16958;DHT22;8595;52.542;11.974;2023-06-14T00:32:23;17.40;99.90
16958;DHT22;8595;52.542;11.974;2023-06-14T00:34:51;17.50;99.90
16958;DHT22;8595;52.542;11.974;2023-06-14T00:37:17;17.50;99.90
16958;DHT22;8595;52.542;11.974;2023-06-14T00:39:46;17.50;99.90
16958;DHT22;8595;52.542;11.974;2023-06-14T00:42:23;17.50;99.90
16958;DHT22;8595;52.542;11.974;2023-06-14T00:44:50;17.60;99.90
16958;DHT22;8595;52.542;11.974;2023-06-14T00:47:17;17.50;99.90
16958;DHT22;8595;52.542;11.974;2023-06-14T00:49:45;17.40;99.90
16958;DHT22;8595;52.542;11.974;2023-06-14T00:52:12;17.30;99.90
16958;DHT22;8595;52.542;11.974;2023-06-14T00:54:40;17.30;99.90
16958;DHT22;8595;52.542;11.974;2023-06-14T00:57:08;17.30;99.90
16958;DHT22;8595;52.542;11.974;2023-06-14T00:59:42;17.30;99.90
16958;DHT22;8595;52.542;11.974;2023-06-14T01:02:10;17.20;99.90
16958;DHT22;8595;52.542;11.974;2023-06-14T01:04:37;17.10;99.90
16958;DHT22;8595;52.542;11.974;2023-06-14T01:07:12;17.10;99.90
16958;DHT22;8595;52.542;11.974;2023-06-14T01:09:50;17.10;99.90
16958;DHT22;8595;52.542;11.974;2023-06-14T01:12:35;17.00;99.90
16958;DHT22;8595;52.542;11.974;2023-06-14T01:15:04;17.10;99.90
16958;DHT22;8595;52.542;11.974;2023-06-14T01:17:31;17.00;99.90
16958;DHT22;8595;52.542;11.974;2023-06-14T01:19:58;17.00;99.90
16958;DHT22;8595;52.542;11.974;2023-06-14T01:22:26;16.90;99.90
16958;DHT22;8595;52.542;11.974;2023-06-14T01:24:54;16.70;99.90
16958;DHT22;8595;52.542;11.974;2023-06-14T01:27:22;16.60;99.90
16958;DHT22;8595;52.542;11.974;2023-06-14T01:29:50;16.80;99.90
16958;DHT22;8595;52.542;11.974;2023-06-14T01:32:22;16.80;99.90
16958;DHT22;8595;52.542;11.974;2023-06-14T01:34:49;16.90;99.90
16958;DHT22;8595;52.542;11.974;2023-06-14T01:37:17;16.80;99.90
16958;DHT22;8595;52.542;11.974;2023-06-14T01:39:44;16.80;99.90
16958;DHT22;8595;52.542;11.974;2023-06-14T01:42:14;16.80;99.90
16958;DHT22;8595;52.542;11.974;2023-06-14T01:44:42;16.80;99.90
16958;DHT22;8595;52.542;11.974;2023-06-14T01:47:09;16.60;99.90
16958;DHT22;8595;52.542;11.974;2023-06-14T01:49:38;16.60;99.90
16958;DHT22;8595;52.542;11.974;2023-06-14T01:52:05;16.60;99.90
16958;DHT22;8595;52.542;11.974;2023-06-14T01:54:36;16.50;99.90
16958;DHT22;8595;52.542;11.974;2023-06-14T01:57:07;16.40;99.90
16958;DHT22;8595;52.542;11.974;2023-06-14T01:59:35;16.30;99.90
16958;DHT22;8595;52.542;11.974;2023-06-14T02:02:02;16.30;99.90
16958;DHT22;8595;52.542;11.974;2023-06-14T02:04:29;16.20;99.90
16958;DHT22;8595;52.542;11.974;2023-06-14T02:06:55;16.10;99.90
16958;DHT22;8595;52.542;11.974;2023-06-14T02:09:22;15.90;99.90
16958;DHT22;8595;52.542;11.974;2023-06-14T02:11:50;15.80;99.90
16958;DHT22;8595;52.542;11.974;2023-06-14T02:14:16;15.90;99.90
16958;DHT22;8595;52.542;11.974;2023-06-14T02:16:44;15.90;99.90
16958;DHT22;8595;52.542;11.974;2023-06-14T02:19:14;15.90;99.90
16958;DHT22;8595;52.542;11.974;2023-06-14T02:21:41;15.90;99.90
16958;DHT22;8595;52.542;11.974;2023-06-14T02:24:08;15.80;99.90
16958;DHT22;8595;52.542;11.974;2023-06-14T02:26:35;15.80;99.90
16958;DHT22;8595;52.542;11.974;2023-06-14T02:29:05;15.80;99.90
16958;DHT22;8595;52.542;11.974;2023-06-14T02:31:35;15.70;99.90
16958;DHT22;8595;52.542;11.974;2023-06-14T02:34:03;15.70;99.90
16958;DHT22;8595;52.542;11.974;2023-06-14T02:36:29;15.70;99.90
16958;DHT22;8595;52.542;11.974;2023-06-14T02:38:56;15.60;99.90
16958;DHT22;8595;52.542;11.974;2023-06-14T02:41:23;15.50;99.90
16958;DHT22;8595;52.542;11.974;2023-06-14T02:43:51;15.60;99.90
16958;DHT22;8595;52.542;11.974;2023-06-14T02:46:21;15.50;99.90
16958;DHT22;8595;52.542;11.974;2023-06-14T02:48:48;15.50;99.90
16958;DHT22;8595;52.542;11.974;2023-06-14T02:51:16;15.60;99.90
16958;DHT22;8595;52.542;11.974;2023-06-14T02:53:42;15.60;99.90
16958;DHT22;8595;52.542;11.974;2023-06-14T02:56:11;15.50;99.90
16958;DHT22;8595;52.542;11.974;2023-06-14T02:58:38;15.40;99.90
16958;DHT22;8595;52.542;11.974;2023-06-14T03:01:06;15.30;99.90
16958;DHT22;8595;52.542;11.974;2023-06-14T03:03:33;15.40;99.90
16958;DHT22;8595;52.542;11.974;2023-06-14T03:06:00;15.30;99.90
16958;DHT22;8595;52.542;11.974;2023-06-14T03:08:31;15.20;99.90
16958;DHT22;8595;52.542;11.974;2023-06-14T03:11:03;15.20;99.90
16958;DHT22;8595;52.542;11.974;2023-06-14T03:13:32;15.10;99.90
16958;DHT22;8595;52.542;11.974;2023-06-14T03:15:59;15.10;99.90
16958;DHT22;8595;52.542;11.974;2023-06-14T03:18:29;15.00;99.90
16958;DHT22;8595;52.542;11.974;2023-06-14T03:20:56;15.20;99.90
16958;DHT22;8595;52.542;11.974;2023-06-14T03:23:23;15.20;99.90
16958;DHT22;8595;52.542;11.974;2023-06-14T03:25:52;15.40;99.90
16958;DHT22;8595;52.542;11.974;2023-06-14T03:28:19;15.50;99.90
16958;DHT22;8595;52.542;11.974;2023-06-14T03:30:45;15.50;99.90
16958;DHT22;8595;52.542;11.974;2023-06-14T03:33:12;15.30;99.90
16958;DHT22;8595;52.542;11.974;2023-06-14T03:35:39;15.20;99.90
16958;DHT22;8595;52.542;11.974;2023-06-14T03:38:05;15.30;99.90
16958;DHT22;8595;52.542;11.974;2023-06-14T03:40:32;15.30;99.90
16958;DHT22;8595;52.542;11.974;2023-06-14T03:43:00;15.40;99.90
16958;DHT22;8595;52.542;11.974;2023-06-14T03:45:27;15.40;99.90
16958;DHT22;8595;52.542;11.974;2023-06-14T03:47:53;15.50;99.90
16958;DHT22;8595;52.542;11.974;2023-06-14T03:50:22;15.50;99.90
16958;DHT22;8595;52.542;11.974;2023-06-14T03:52:49;15.40;99.90
16958;DHT22;8595;52.542;11.974;2023-06-14T03:55:16;15.40;99.90
16958;DHT22;8595;52.542;11.974;2023-06-14T03:57:42;15.40;99.90
16958;DHT22;8595;52.542;11.974;2023-06-14T04:00:12;15.50;99.90
16958;DHT22;8595;52.542;11.974;2023-06-14T04:02:39;15.30;99.90
16958;DHT22;8595;52.542;11.974;2023-06-14T04:05:06;15.30;99.90
16958;DHT22;8595;52.542;11.974;2023-06-14T04:07:34;15.40;99.90
16958;DHT22;8595;52.542;11.974;2023-06-14T04:10:06;15.50;99.90
16958;DHT22;8595;52.542;11.974;2023-06-14T04:12:33;15.60;99.90
16958;DHT22;8595;52.542;11.974;2023-06-14T04:15:00;15.60;99.90
16958;DHT22;8595;52.542;11.974;2023-06-14T04:17:28;15.50;99.90
16958;DHT22;8595;52.542;11.974;2023-06-14T04:19:55;15.50;99.90
16958;DHT22;8595;52.542;11.974;2023-06-14T04:22:24;15.60;99.90
16958;DHT22;8595;52.542;11.974;2023-06-14T04:24:54;15.70;99.90
16958;DHT22;8595;52.542;11.974;2023-06-14T04:27:21;15.70;99.90
16958;DHT22;8595;52.542;11.974;2023-06-14T04:29:51;15.70;99.90
16958;DHT22;8595;52.542;11.974;2023-06-14T04:32:23;15.70;99.90
16958;DHT22;8595;52.542;11.974;2023-06-14T04:34:53;15.70;99.90
16958;DHT22;8595;52.542;11.974;2023-06-14T04:37:20;15.60;99.90
16958;DHT22;8595;52.542;11.974;2023-06-14T04:39:47;15.60;99.90
16958;DHT22;8595;52.542;11.974;2023-06-14T04:42:14;15.60;99.90
16958;DHT22;8595;52.542;11.974;2023-06-14T04:44:41;15.70;99.90
16958;DHT22;8595;52.542;11.974;2023-06-14T04:47:09;15.70;99.90
16958;DHT22;8595;52.542;11.974;2023-06-14T04:49:36;15.90;99.90
16958;DHT22;8595;52.542;11.974;2023-06-14T04:52:05;16.00;99.90
16958;DHT22;8595;52.542;11.974;2023-06-14T04:54:33;16.00;99.90
16958;DHT22;8595;52.542;11.974;2023-06-14T04:57:02;16.10;99.90
16958;DHT22;8595;52.542;11.974;2023-06-14T04:59:29;16.10;99.90
16958;DHT22;8595;52.542;11.974;2023-06-14T05:01:58;16.10;99.90
16958;DHT22;8595;52.542;11.974;2023-06-14T05:04:26;16.10;99.90
16958;DHT22;8595;52.542;11.974;2023-06-14T05:06:53;15.90;99.90
16958;DHT22;8595;52.542;11.974;2023-06-14T05:09:22;15.90;99.90
16958;DHT22;8595;52.542;11.974;2023-06-14T05:11:48;16.10;99.90
16958;DHT22;8595;52.542;11.974;2023-06-14T05:14:16;16.20;99.90
16958;DHT22;8595;52.542;11.974;2023-06-14T05:16:42;16.20;99.90
16958;DHT22;8595;52.542;11.974;2023-06-14T05:19:09;16.30;99.90
16958;DHT22;8595;52.542;11.974;2023-06-14T05:21:36;16.40;99.90
16958;DHT22;8595;52.542;11.974;2023-06-14T05:24:03;16.50;99.90
16958;DHT22;8595;52.542;11.974;2023-06-14T05:26:31;16.50;99.90
16958;DHT22;8595;52.542;11.974;2023-06-14T05:28:59;16.50;99.90
16958;DHT22;8595;52.542;11.974;2023-06-14T05:31:27;16.60;99.90
16958;DHT22;8595;52.542;11.974;2023-06-14T05:33:53;16.70;99.90
16958;DHT22;8595;52.542;11.974;2023-06-14T05:36:20;16.80;99.90
16958;DHT22;8595;52.542;11.974;2023-06-14T05:38:47;16.80;99.90
16958;DHT22;8595;52.542;11.974;2023-06-14T05:41:14;17.00;99.90
16958;DHT22;8595;52.542;11.974;2023-06-14T05:43:42;17.00;99.90
16958;DHT22;8595;52.542;11.974;2023-06-14T05:46:09;17.10;99.90
16958;DHT22;8595;52.542;11.974;2023-06-14T05:48:35;17.20;99.90
16958;DHT22;8595;52.542;11.974;2023-06-14T05:51:02;17.30;99.90
16958;DHT22;8595;52.542;11.974;2023-06-14T05:53:29;17.40;99.90
16958;DHT22;8595;52.542;11.974;2023-06-14T05:55:56;17.40;99.90
16958;DHT22;8595;52.542;11.974;2023-06-14T05:58:22;17.50;99.90
16958;DHT22;8595;52.542;11.974;2023-06-14T06:00:50;17.60;99.90
16958;DHT22;8595;52.542;11.974;2023-06-14T06:03:19;17.60;99.90
16958;DHT22;8595;52.542;11.974;2023-06-14T06:05:46;17.70;99.90
16958;DHT22;8595;52.542;11.974;2023-06-14T06:08:13;17.80;99.90
16958;DHT22;8595;52.542;11.974;2023-06-14T06:10:42;17.80;99.90
16958;DHT22;8595;52.542;11.974;2023-06-14T06:13:08;17.90;99.90
16958;DHT22;8595;52.542;11.974;2023-06-14T06:15:36;17.90;99.90
16958;DHT22;8595;52.542;11.974;2023-06-14T06:18:04;17.90;99.90
16958;DHT22;8595;52.542;11.974;2023-06-14T06:20:33;18.00;99.90
16958;DHT22;8595;52.542;11.974;2023-06-14T06:23:01;18.10;99.90
16958;DHT22;8595;52.542;11.974;2023-06-14T06:25:28;18.20;99.90
16958;DHT22;8595;52.542;11.974;2023-06-14T06:27:57;18.40;99.90
16958;DHT22;8595;52.542;11.974;2023-06-14T06:30:24;18.40;99.90
16958;DHT22;8595;52.542;11.974;2023-06-14T06:32:51;18.50;99.90
16958;DHT22;8595;52.542;11.974;2023-06-14T06:35:19;18.50;99.90
16958;DHT22;8595;52.542;11.974;2023-06-14T06:37:46;18.60;99.90
16958;DHT22;8595;52.542;11.974;2023-06-14T06:40:13;18.70;99.90
16958;DHT22;8595;52.542;11.974;2023-06-14T06:42:40;18.80;99.90
16958;DHT22;8595;52.542;11.974;2023-06-14T06:45:08;18.90;99.90
16958;DHT22;8595;52.542;11.974;2023-06-14T06:47:39;19.00;99.90
16958;DHT22;8595;52.542;11.974;2023-06-14T06:50:07;19.00;99.90
16958;DHT22;8595;52.542;11.974;2023-06-14T06:52:36;19.00;99.90
16958;DHT22;8595;52.542;11.974;2023-06-14T06:55:03;19.00;99.90
16958;DHT22;8595;52.542;11.974;2023-06-14T06:57:29;19.00;99.90
16958;DHT22;8595;52.542;11.974;2023-06-14T06:59:57;19.10;99.90
16958;DHT22;8595;52.542;11.974;2023-06-14T07:02:24;19.20;99.90
16958;DHT22;8595;52.542;11.974;2023-06-14T07:04:50;19.40;99.90
16958;DHT22;8595;52.542;11.974;2023-06-14T07:07:17;19.60;99.90
16958;DHT22;8595;52.542;11.974;2023-06-14T07:09:45;19.80;99.90
16958;DHT22;8595;52.542;11.974;2023-06-14T07:12:13;19.90;99.90
16958;DHT22;8595;52.542;11.974;2023-06-14T07:14:41;20.00;99.90
16958;DHT22;8595;52.542;11.974;2023-06-14T07:17:09;20.00;99.90
16958;DHT22;8595;52.542;11.974;2023-06-14T07:19:37;20.00;99.90
16958;DHT22;8595;52.542;11.974;2023-06-14T07:22:06;20.10;99.90
16958;DHT22;8595;52.542;11.974;2023-06-14T07:24:33;20.00;99.90
16958;DHT22;8595;52.542;11.974;2023-06-14T07:27:03;20.10;99.90
16958;DHT22;8595;52.542;11.974;2023-06-14T07:29:30;20.30;99.90
16958;DHT22;8595;52.542;11.974;2023-06-14T07:31:56;20.40;99.90
16958;DHT22;8595;52.542;11.974;2023-06-14T07:34:23;20.50;99.90
16958;DHT22;8595;52.542;11.974;2023-06-14T07:36:51;20.50;99.90
16958;DHT22;8595;52.542;11.974;2023-06-14T07:39:19;20.60;99.90
16958;DHT22;8595;52.542;11.974;2023-06-14T07:41:46;20.70;99.90
16958;DHT22;8595;52.542;11.974;2023-06-14T07:44:14;20.70;99.90
16958;DHT22;8595;52.542;11.974;2023-06-14T07:46:41;20.80;99.90
16958;DHT22;8595;52.542;11.974;2023-06-14T07:49:08;21.10;99.90
16958;DHT22;8595;52.542;11.974;2023-06-14T07:51:35;21.20;99.90
16958;DHT22;8595;52.542;11.974;2023-06-14T07:54:03;21.20;99.90
16958;DHT22;8595;52.542;11.974;2023-06-14T07:56:32;21.30;99.90
16958;DHT22;8595;52.542;11.974;2023-06-14T07:58:59;21.30;99.90
16958;DHT22;8595;52.542;11.974;2023-06-14T08:01:27;21.40;99.90
16958;DHT22;8595;52.542;11.974;2023-06-14T08:03:54;21.50;99.90
16958;DHT22;8595;52.542;11.974;2023-06-14T08:06:20;21.60;99.90
16958;DHT22;8595;52.542;11.974;2023-06-14T08:08:47;21.60;99.90
16958;DHT22;8595;52.542;11.974;2023-06-14T08:11:14;21.70;99.90
16958;DHT22;8595;52.542;11.974;2023-06-14T08:13:41;21.80;99.90
16958;DHT22;8595;52.542;11.974;2023-06-14T08:16:07;22.00;99.90
16958;DHT22;8595;52.542;11.974;2023-06-14T08:18:35;22.10;99.90
16958;DHT22;8595;52.542;11.974;2023-06-14T08:21:02;22.20;99.90
16958;DHT22;8595;52.542;11.974;2023-06-14T08:23:29;22.20;99.90
16958;DHT22;8595;52.542;11.974;2023-06-14T08:25:56;22.40;99.90
16958;DHT22;8595;52.542;11.974;2023-06-14T08:28:24;22.50;99.90
16958;DHT22;8595;52.542;11.974;2023-06-14T08:30:51;22.70;99.90
16958;DHT22;8595;52.542;11.974;2023-06-14T08:33:17;22.50;99.90
16958;DHT22;8595;52.542;11.974;2023-06-14T08:35:45;22.50;99.90
16958;DHT22;8595;52.542;11.974;2023-06-14T08:38:12;22.60;99.90
16958;DHT22;8595;52.542;11.974;2023-06-14T08:40:40;22.70;99.90
16958;DHT22;8595;52.542;11.974;2023-06-14T08:43:07;22.90;99.90
16958;DHT22;8595;52.542;11.974;2023-06-14T08:45:34;22.90;99.90
16958;DHT22;8595;52.542;11.974;2023-06-14T08:48:01;22.90;99.90
16958;DHT22;8595;52.542;11.974;2023-06-14T08:50:28;23.00;99.90
16958;DHT22;8595;52.542;11.974;2023-06-14T08:52:58;23.10;99.90
16958;DHT22;8595;52.542;11.974;2023-06-14T08:55:28;23.30;99.90
16958;DHT22;8595;52.542;11.974;2023-06-14T08:57:56;23.60;99.90
16958;DHT22;8595;52.542;11.974;2023-06-14T09:00:25;23.50;99.90
16958;DHT22;8595;52.542;11.974;2023-06-14T09:02:53;23.60;99.90
16958;DHT22;8595;52.542;11.974;2023-06-14T09:05:24;23.70;99.90
16958;DHT22;8595;52.542;11.974;2023-06-14T09:07:51;23.90;99.90
16958;DHT22;8595;52.542;11.974;2023-06-14T09:10:21;24.00;99.90
16958;DHT22;8595;52.542;11.974;2023-06-14T09:12:48;24.50;99.90
16958;DHT22;8595;52.542;11.974;2023-06-14T09:15:15;25.20;99.90
16958;DHT22;8595;52.542;11.974;2023-06-14T09:17:42;25.60;99.90
16958;DHT22;8595;52.542;11.974;2023-06-14T09:20:10;26.10;99.90
16958;DHT22;8595;52.542;11.974;2023-06-14T09:22:39;27.00;99.90
16958;DHT22;8595;52.542;11.974;2023-06-14T09:25:07;27.00;99.90
16958;DHT22;8595;52.542;11.974;2023-06-14T09:27:35;27.00;99.90
16958;DHT22;8595;52.542;11.974;2023-06-14T09:30:06;27.50;99.90
16958;DHT22;8595;52.542;11.974;2023-06-14T09:32:36;27.80;99.90
16958;DHT22;8595;52.542;11.974;2023-06-14T09:35:04;27.30;99.90
16958;DHT22;8595;52.542;11.974;2023-06-14T09:37:33;27.30;99.90
16958;DHT22;8595;52.542;11.974;2023-06-14T09:40:01;27.50;99.90
16958;DHT22;8595;52.542;11.974;2023-06-14T09:42:27;27.30;99.90
16958;DHT22;8595;52.542;11.974;2023-06-14T09:44:57;27.70;99.90
16958;DHT22;8595;52.542;11.974;2023-06-14T09:47:24;27.30;99.90
16958;DHT22;8595;52.542;11.974;2023-06-14T09:49:51;27.00;99.90
16958;DHT22;8595;52.542;11.974;2023-06-14T09:52:21;26.80;99.90
16958;DHT22;8595;52.542;11.974;2023-06-14T09:54:48;26.60;99.90
16958;DHT22;8595;52.542;11.974;2023-06-14T09:57:17;26.30;99.90
16958;DHT22;8595;52.542;11.974;2023-06-14T09:59:48;25.70;99.90
16958;DHT22;8595;52.542;11.974;2023-06-14T10:02:25;26.60;99.90
16958;DHT22;8595;52.542;11.974;2023-06-14T10:04:56;27.10;99.90
16958;DHT22;8595;52.542;11.974;2023-06-14T10:07:26;27.80;99.90
16958;DHT22;8595;52.542;11.974;2023-06-14T10:09:57;28.90;99.70
16958;DHT22;8595;52.542;11.974;2023-06-14T10:12:24;29.90;98.60
16958;DHT22;8595;52.542;11.974;2023-06-14T10:14:52;30.10;97.40
16958;DHT22;8595;52.542;11.974;2023-06-14T10:17:32;30.50;95.40
16958;DHT22;8595;52.542;11.974;2023-06-14T10:20:12;30.10;94.60
16958;DHT22;8595;52.542;11.974;2023-06-14T10:22:44;29.10;93.80
16958;DHT22;8595;52.542;11.974;2023-06-14T10:25:13;28.20;94.10
16958;DHT22;8595;52.542;11.974;2023-06-14T10:27:52;28.60;95.10
16958;DHT22;8595;52.542;11.974;2023-06-14T10:30:25;29.30;94.00
16958;DHT22;8595;52.542;11.974;2023-06-14T10:33:14;29.80;93.80
16958;DHT22;8595;52.542;11.974;2023-06-14T10:35:41;30.60;92.60
16958;DHT22;8595;52.542;11.974;2023-06-14T10:38:09;30.20;92.20
16958;DHT22;8595;52.542;11.974;2023-06-14T10:40:36;30.10;91.90
16958;DHT22;8595;52.542;11.974;2023-06-14T10:43:23;30.30;90.10
16958;DHT22;8595;52.542;11.974;2023-06-14T10:46:15;30.00;87.70
16958;DHT22;8595;52.542;11.974;2023-06-14T10:48:44;30.30;88.20
16958;DHT22;8595;52.542;11.974;2023-06-14T10:51:18;30.50;85.50
16958;DHT22;8595;52.542;11.974;2023-06-14T10:53:48;30.10;84.90
16958;DHT22;8595;52.542;11.974;2023-06-14T10:56:27;30.50;83.70
16958;DHT22;8595;52.542;11.974;2023-06-14T10:58:55;30.40;85.00
16958;DHT22;8595;52.542;11.974;2023-06-14T11:01:31;30.60;84.10
16958;DHT22;8595;52.542;11.974;2023-06-14T11:04:09;31.30;83.80
16958;DHT22;8595;52.542;11.974;2023-06-14T11:06:47;31.90;80.80
16958;DHT22;8595;52.542;11.974;2023-06-14T11:09:50;31.10;79.80
16958;DHT22;8595;52.542;11.974;2023-06-14T11:12:21;30.60;81.80
16958;DHT22;8595;52.542;11.974;2023-06-14T11:14:48;31.30;80.70
16958;DHT22;8595;52.542;11.974;2023-06-14T11:17:15;31.40;79.90
16958;DHT22;8595;52.542;11.974;2023-06-14T11:19:44;30.80;79.70
16958;DHT22;8595;52.542;11.974;2023-06-14T11:22:10;30.20;80.20
16958;DHT22;8595;52.542;11.974;2023-06-14T11:24:37;30.10;82.20
16958;DHT22;8595;52.542;11.974;2023-06-14T11:27:04;29.80;81.20
16958;DHT22;8595;52.542;11.974;2023-06-14T11:29:32;29.50;82.00
16958;DHT22;8595;52.542;11.974;2023-06-14T11:31:59;29.10;80.20
16958;DHT22;8595;52.542;11.974;2023-06-14T11:34:25;28.80;80.70
16958;DHT22;8595;52.542;11.974;2023-06-14T11:36:53;28.60;80.60
16958;DHT22;8595;52.542;11.974;2023-06-14T11:39:24;28.40;81.80
16958;DHT22;8595;52.542;11.974;2023-06-14T11:41:51;28.00;82.80
16958;DHT22;8595;52.542;11.974;2023-06-14T11:44:18;27.90;84.00
16958;DHT22;8595;52.542;11.974;2023-06-14T11:46:45;27.60;84.00
16958;DHT22;8595;52.542;11.974;2023-06-14T11:49:12;27.40;84.50
16958;DHT22;8595;52.542;11.974;2023-06-14T11:51:39;27.20;85.50
16958;DHT22;8595;52.542;11.974;2023-06-14T11:54:10;27.00;84.00
16958;DHT22;8595;52.542;11.974;2023-06-14T11:56:37;27.10;85.10
16958;DHT22;8595;52.542;11.974;2023-06-14T11:59:06;27.20;85.00
16958;DHT22;8595;52.542;11.974;2023-06-14T12:01:37;27.80;83.10
16958;DHT22;8595;52.542;11.974;2023-06-14T12:04:05;29.10;82.00
16958;DHT22;8595;52.542;11.974;2023-06-14T12:06:32;29.50;79.80
16958;DHT22;8595;52.542;11.974;2023-06-14T12:09:03;30.00;80.20
16958;DHT22;8595;52.542;11.974;2023-06-14T12:11:35;29.20;77.10
16958;DHT22;8595;52.542;11.974;2023-06-14T12:14:03;28.80;78.40
16958;DHT22;8595;52.542;11.974;2023-06-14T12:16:31;28.70;78.60
16958;DHT22;8595;52.542;11.974;2023-06-14T12:19:01;28.40;78.40
16958;DHT22;8595;52.542;11.974;2023-06-14T12:21:34;28.10;77.80
16958;DHT22;8595;52.542;11.974;2023-06-14T12:24:03;28.60;78.10
16958;DHT22;8595;52.542;11.974;2023-06-14T12:26:33;28.60;76.80
16958;DHT22;8595;52.542;11.974;2023-06-14T12:29:01;28.80;77.20
16958;DHT22;8595;52.542;11.974;2023-06-14T12:31:28;28.60;76.20
16958;DHT22;8595;52.542;11.974;2023-06-14T12:33:55;28.80;76.60
16958;DHT22;8595;52.542;11.974;2023-06-14T12:36:21;29.00;75.60
16958;DHT22;8595;52.542;11.974;2023-06-14T12:38:48;29.10;74.60
16958;DHT22;8595;52.542;11.974;2023-06-14T12:41:18;29.10;74.20
16958;DHT22;8595;52.542;11.974;2023-06-14T12:43:48;28.90;74.30
16958;DHT22;8595;52.542;11.974;2023-06-14T12:46:14;28.80;72.90
16958;DHT22;8595;52.542;11.974;2023-06-14T12:48:41;28.60;72.80
16958;DHT22;8595;52.542;11.974;2023-06-14T12:51:08;28.60;74.30
16958;DHT22;8595;52.542;11.974;2023-06-14T12:53:34;28.40;75.30
16958;DHT22;8595;52.542;11.974;2023-06-14T12:56:01;28.20;74.50
16958;DHT22;8595;52.542;11.974;2023-06-14T12:58:28;28.10;74.30
16958;DHT22;8595;52.542;11.974;2023-06-14T13:00:56;28.00;75.10
16958;DHT22;8595;52.542;11.974;2023-06-14T13:03:22;27.90;76.30
16958;DHT22;8595;52.542;11.974;2023-06-14T13:05:49;28.20;76.10
16958;DHT22;8595;52.542;11.974;2023-06-14T13:08:16;28.80;76.10
16958;DHT22;8595;52.542;11.974;2023-06-14T13:10:42;29.40;74.40
16958;DHT22;8595;52.542;11.974;2023-06-14T13:13:09;29.70;72.50
16958;DHT22;8595;52.542;11.974;2023-06-14T13:15:37;29.60;73.70
16958;DHT22;8595;52.542;11.974;2023-06-14T13:18:06;29.70;71.40
16958;DHT22;8595;52.542;11.974;2023-06-14T13:20:33;29.20;72.50
16958;DHT22;8595;52.542;11.974;2023-06-14T13:22:59;28.60;73.00
16958;DHT22;8595;52.542;11.974;2023-06-14T13:25:27;28.20;75.70
16958;DHT22;8595;52.542;11.974;2023-06-14T13:27:54;27.90;76.30
16958;DHT22;8595;52.542;11.974;2023-06-14T13:30:21;27.70;75.50
16958;DHT22;8595;52.542;11.974;2023-06-14T13:32:48;27.50;77.40
16958;DHT22;8595;52.542;11.974;2023-06-14T13:35:17;27.40;75.40
16958;DHT22;8595;52.542;11.974;2023-06-14T13:37:44;27.40;76.10
16958;DHT22;8595;52.542;11.974;2023-06-14T13:40:12;27.50;76.20
16958;DHT22;8595;52.542;11.974;2023-06-14T13:42:38;27.50;76.20
16958;DHT22;8595;52.542;11.974;2023-06-14T13:45:09;27.60;77.40
16958;DHT22;8595;52.542;11.974;2023-06-14T13:47:37;27.60;76.80
16958;DHT22;8595;52.542;11.974;2023-06-14T13:50:04;27.40;76.40
16958;DHT22;8595;52.542;11.974;2023-06-14T13:52:33;27.40;75.20
16958;DHT22;8595;52.542;11.974;2023-06-14T13:55:01;27.40;75.00
16958;DHT22;8595;52.542;11.974;2023-06-14T13:57:28;27.40;75.00
16958;DHT22;8595;52.542;11.974;2023-06-14T13:59:55;27.50;76.00
16958;DHT22;8595;52.542;11.974;2023-06-14T14:02:26;27.40;75.80
16958;DHT22;8595;52.542;11.974;2023-06-14T14:04:53;27.30;76.80
16958;DHT22;8595;52.542;11.974;2023-06-14T14:07:20;27.30;75.60
16958;DHT22;8595;52.542;11.974;2023-06-14T14:09:48;27.10;76.30
16958;DHT22;8595;52.542;11.974;2023-06-14T14:12:15;27.20;76.40
16958;DHT22;8595;52.542;11.974;2023-06-14T14:14:42;27.20;76.40
16958;DHT22;8595;52.542;11.974;2023-06-14T14:17:08;27.20;77.00
16958;DHT22;8595;52.542;11.974;2023-06-14T14:19:35;27.10;76.80
16958;DHT22;8595;52.542;11.974;2023-06-14T14:22:02;27.00;78.10
16958;DHT22;8595;52.542;11.974;2023-06-14T14:24:28;26.90;78.00
16958;DHT22;8595;52.542;11.974;2023-06-14T14:26:56;26.80;77.50
16958;DHT22;8595;52.542;11.974;2023-06-14T14:29:25;26.80;77.50
16958;DHT22;8595;52.542;11.974;2023-06-14T14:31:54;26.80;77.80
16958;DHT22;8595;52.542;11.974;2023-06-14T14:34:21;26.80;78.60
16958;DHT22;8595;52.542;11.974;2023-06-14T14:36:47;26.80;80.10
16958;DHT22;8595;52.542;11.974;2023-06-14T14:39:14;26.70;77.40
16958;DHT22;8595;52.542;11.974;2023-06-14T14:41:41;26.80;78.10
16958;DHT22;8595;52.542;11.974;2023-06-14T14:44:09;26.80;78.20
16958;DHT22;8595;52.542;11.974;2023-06-14T14:46:36;26.70;78.90
16958;DHT22;8595;52.542;11.974;2023-06-14T14:49:03;26.60;77.40
16958;DHT22;8595;52.542;11.974;2023-06-14T14:51:30;26.70;77.30
16958;DHT22;8595;52.542;11.974;2023-06-14T14:53:56;26.60;75.90
16958;DHT22;8595;52.542;11.974;2023-06-14T14:56:23;26.60;77.30
16958;DHT22;8595;52.542;11.974;2023-06-14T14:58:52;26.60;76.40
16958;DHT22;8595;52.542;11.974;2023-06-14T15:01:20;26.70;77.20
16958;DHT22;8595;52.542;11.974;2023-06-14T15:03:46;26.90;77.60
16958;DHT22;8595;52.542;11.974;2023-06-14T15:06:13;27.10;76.40
16958;DHT22;8595;52.542;11.974;2023-06-14T15:08:40;27.40;77.30
16958;DHT22;8595;52.542;11.974;2023-06-14T15:11:07;28.00;76.80
16958;DHT22;8595;52.542;11.974;2023-06-14T15:13:34;28.40;76.30
16958;DHT22;8595;52.542;11.974;2023-06-14T15:16:02;28.90;75.70
16958;DHT22;8595;52.542;11.974;2023-06-14T15:18:30;29.10;74.50
16958;DHT22;8595;52.542;11.974;2023-06-14T15:20:57;29.70;74.90
16958;DHT22;8595;52.542;11.974;2023-06-14T15:23:23;29.90;74.80
16958;DHT22;8595;52.542;11.974;2023-06-14T15:25:50;29.70;72.60
16958;DHT22;8595;52.542;11.974;2023-06-14T15:28:17;29.90;72.90
16958;DHT22;8595;52.542;11.974;2023-06-14T15:30:44;30.30;72.20
16958;DHT22;8595;52.542;11.974;2023-06-14T15:33:11;30.10;71.80
16958;DHT22;8595;52.542;11.974;2023-06-14T15:35:39;29.70;71.90